Sites météorologiques /Documentations/ Programmes:

Météo Québec
Site web version 2
Modèle de Meteotemplate

CoCoRaHS Canada
Station CAN-QC-39

En Alerte
*** Système d'alerte
en urgence ***

Québec en Alerte

Météo Alerte Québec

Météo Centre

État des routes
Québec 511

Orage Québec

Québec Vortex
chasseurs de tempêtes

Hydro Météo (info-rivière)

Avalanche Québec

Agrométéo Québec

Bulletin des agriculteurs secteur Québec

Réseau Météo-Québec

Réseau Météo des Provinces Atlantiques

Réseau Météo Ontario

Séismes Canada
l'Est du Canada

Fire Smoke Canada

Canwarn Québec

Climat Québec

Environnement Canada

MétéoMédia

Leuven Template

Réseau de transport de la Capitale (RTC)


Équipements et logiciels de la station:

Davis Pro 2

Weather Display

Asus/Intel

Rapidenet Canada

Il n'y a aucun avertissement, veille ou avis météorologique en vigueur en ce moment.

Rapports d'observations METAR régionales et provinciales

   
CWPD - L'ÉTAPE
Mise à jour: 25-08-2019 05:00
  
  
   
Température: 6°C
Point de rosée: 6°C
Humidité relative: 100%
CWPD 250900Z AUTO 23001KT 06/06 RMK AO1 SLP274 T00620062 55000
CYBG - BAGOTVILLE
Mise à jour: 25-08-2019 05:00
  
  
   
Température: 8°C
Point de rosée: 7°C
Humidité relative: 93%
Pression barométrique: 102.88 kPa
Nuages: Dégagé
visibilité: 40.2 km
Détails des nuages: Dégagé
CYBG 250900Z 22002KT 25SM SKC 08/07 A3038 RMK SLP292
CYRJ - ROBERVAL
Mise à jour: 25-08-2019 05:00
  
  
   
Température: 8°C
Facteur éolien: 6°C
Point de rosée: 6°C
Humidité relative: 87%
Pression barométrique: 102.81 kPa
Nuages: Quelques nuages
visibilité: 40.2 km
Détails des nuages: Quelques nuages 8000 ft
CYRJ 250900Z 27006KT 25SM FEW080 08/06 A3036 RMK AC1 AC TR SLP287
CYRQ - TROIS-RIVIÈRES
Mise à jour: 25-08-2019 05:00
  
  
   
Température: 9°C
Point de rosée: 8°C
Humidité relative: 94%
Pression barométrique: 102.81 kPa
Nuages: Dégagé
visibilité: 14.5 km
Détails des nuages: Dégagé
CYRQ 250900Z AUTO 00000KT 9SM CLR 09/08 A3036 RMK SLP282
CYYY - MONT-JOLI
Mise à jour: 25-08-2019 05:00
  
  
   
Température: 10°C
Facteur éolien: 8°C
Point de rosée: 7°C
Humidité relative: 82%
Pression barométrique: 102.78 kPa
Nuages: Dégagé
visibilité: 24.1 km
Détails des nuages: Dégagé
CYYY 250900Z 17007KT 15SM SKC 10/07 A3035 RMK SLP280
CYUL - MONTRÉAL
Mise à jour: 25-08-2019 05:00
  
  
   
Température: 13°C
Point de rosée: 11°C
Humidité relative: 88%
Pression barométrique: 102.68 kPa
Nuages: Dégagé
visibilité: 24.1 km
Détails des nuages: Dégagé
CYUL 250900Z 01008KT 15SM SKC 13/11 A3032 RMK SLP270
CYQB - QUÉBEC
Mise à jour: 25-08-2019 05:00
  
  
   
Température: 10°C
Point de rosée: 8°C
Humidité relative: 88%
Pression barométrique: 102.88 kPa
Nuages: Dégagé
visibilité: 24.1 km
Détails des nuages: Dégagé
CYQB 250900Z 03002KT 15SM SKC 10/08 A3038 RMK SLP292
CYRJ - SAGUENUAY
Mise à jour: 25-08-2019 05:00
  
  
   
Température: 8°C
Facteur éolien: 6°C
Point de rosée: 6°C
Humidité relative: 87%
Pression barométrique: 102.81 kPa
Nuages: Quelques nuages
visibilité: 40.2 km
Détails des nuages: Quelques nuages 8000 ft
CYRJ 250900Z 27006KT 25SM FEW080 08/06 A3036 RMK AC1 AC TR SLP287
CWZS - AMQUI
Mise à jour: 08-07-2019 18:00
PAS actuel
  
  
   
Température: 15°C
Point de rosée: 13°C
Humidité relative: 88%
CWZS 082200Z AUTO 20004KT 15/13 RMK AO1 SLP080 T01490131 50015
CWOC - NEW CARLISLE
Mise à jour: 25-08-2019 04:00
PAS actuel
  
  
   
Température: 8°C
Facteur éolien: 7°C
Point de rosée: 8°C
Humidité relative: 100%
CWOC 250800Z AUTO 34004KT 08/08 RMK AO1 SLP282 T00750084 53002
CYBX - BLANC-SABLON
Mise à jour: 25-08-2019 05:00
  
  
   
Température: 6°C
Point de rosée: 5°C
Humidité relative: 93%
Pression barométrique: 102.27 kPa
Nuages: Partiellement nuageux
visibilité: 24.1 km
Détails des nuages: Quelques nuages 15000 ft,
Partiellement nuageux 25000 ft
CYBX 250900Z VRB02KT 15SM FEW150 SCT250 06/05 A3020 RMK AC1CI2 SLP229
CYAD - BAIE-JAMES
Mise à jour: 30-10-2015 16:00
PAS actuel
  
  
   
Température: -2°C
Facteur éolien: -8°C
Point de rosée: -4°C
Humidité relative: 86%
Pression barométrique: 100.51 kPa
Nuages: Nuageux
visibilité: 9.7 km
Détails des nuages: Nuageux 1200 ft
CYAD 302000Z 31011G17KT 6SM -SHSN OVC012 M02/M04 A2968 RMK SC7 LAST OBS/NEXT 021200 UTC SLP066
CYMT - CHIBOUGAMAU
Mise à jour: 25-08-2019 05:44
  
  
   
Température: 8°C
Point de rosée: 8°C
Humidité relative: 100%
Pression barométrique: 102.78 kPa
Nuages: Généralement nuageux
visibilité: 1.6 km
Détails des nuages: Généralement nuageux 200 ft
CYMT 250944Z AUTO 13002KT 1/8SM FG BKN002 08/08 A3035 RMK SLP286
CYGR - ILES-DE-LA-MADELEINE
Mise à jour: 25-08-2019 05:00
  
  
   
Température: 11°C
Point de rosée: 7°C
Humidité relative: 77%
Pression barométrique: 102.84 kPa
Nuages: Quelques nuages
visibilité: 32.2 km
Détails des nuages: Quelques nuages 3000 ft
CYGR 250900Z 03004KT 20SM FEW030 11/07 A3037 RMK SC1 SC TR SLP285
CWBY - PORT-MENIER
Mise à jour: 24-08-2019 22:00
PAS actuel
  
  
   
Température: 10°C
Point de rosée: 7°C
Humidité relative: 82%
CWBY 250200Z AUTO 34001KT 10/07 RMK AO1 SLP261 T00970073 51016
CYZV - SEPT-ILES
Mise à jour: 25-08-2019 05:00
  
  
   
Température: 3°C
Point de rosée: 2°C
Humidité relative: 93%
Pression barométrique: 102.68 kPa
Nuages: Quelques nuages
visibilité: 32.2 km
Détails des nuages: Quelques nuages 25000 ft
CYZV 250900Z 00000KT 20SM FEW250 03/02 A3032 RMK CI2 SLP272
CYGP - SHERBROOKE
Mise à jour: 25-08-2019 05:00
  
  
   
Température: 3°C
Facteur éolien: 2°C
Point de rosée: 3°C
Humidité relative: 100%
Pression barométrique: 102.78 kPa
Nuages: Dégagé
visibilité: 24.1 km
Détails des nuages: Dégagé
CYGP 250900Z 23003KT 15SM SKC 03/03 A3035 RMK SLP281
CYZV - GATINEAU
Mise à jour: 25-08-2019 05:00
  
  
   
Température: 3°C
Point de rosée: 2°C
Humidité relative: 93%
Pression barométrique: 102.68 kPa
Nuages: Quelques nuages
visibilité: 32.2 km
Détails des nuages: Quelques nuages 25000 ft
CYZV 250900Z 00000KT 20SM FEW250 03/02 A3032 RMK CI2 SLP272
CYOW - OTTAWA
Mise à jour: 25-08-2019 05:00
  
  
   
Température: 11°C
Point de rosée: 11°C
Humidité relative: 100%
Pression barométrique: 102.68 kPa
Nuages: Dégagé
visibilité: 24.1 km
Détails des nuages: Dégagé
CYOW 250900Z 06005KT 15SM SKC 11/11 A3032 RMK DIST FG BANK NW SLP271
  

Script original développé par  Saratoga-weather.org Adapté pour le modèle par  Weerstation Leuven

Les données sont envoyées via ces sites météo:

WeatherCloud

Weather Underground

AWEKAS

HAMweather, WeatherForYou, PWS Weather